sensor_id;sensor_type;location;lat;lon;timestamp;pressure;altitude;pressure_sealevel;temperature;humidity
40117;BME280;25829;50.228;18.936;2023-04-23T00:11:08;98198.22;;;7.68;53.23
40117;BME280;25829;50.228;18.936;2023-04-23T00:18:32;98198.25;;;7.74;53.87
40117;BME280;25829;50.228;18.936;2023-04-23T00:29:04;98196.00;;;7.71;53.19
40117;BME280;25829;50.228;18.936;2023-04-23T00:32:44;98188.53;;;7.75;53.35
40117;BME280;25829;50.228;18.936;2023-04-23T00:48:11;98178.00;;;7.62;54.09
40117;BME280;25829;50.228;18.936;2023-04-23T00:51:34;98182.00;;;7.58;54.49
40117;BME280;25829;50.228;18.936;2023-04-23T00:54:38;98185.22;;;7.53;54.49
40117;BME280;25829;50.228;18.936;2023-04-23T00:57:39;98191.47;;;7.52;54.83
40117;BME280;25829;50.228;18.936;2023-04-23T01:00:44;98191.25;;;7.47;54.81
40117;BME280;25829;50.228;18.936;2023-04-23T01:04:01;98191.63;;;7.44;54.71
40117;BME280;25829;50.228;18.936;2023-04-23T01:07:05;98193.81;;;7.40;55.29
40117;BME280;25829;50.228;18.936;2023-04-23T01:10:07;98188.78;;;7.39;55.34
40117;BME280;25829;50.228;18.936;2023-04-23T01:17:22;98193.91;;;7.19;55.18
40117;BME280;25829;50.228;18.936;2023-04-23T01:20:23;98185.97;;;7.12;55.22
40117;BME280;25829;50.228;18.936;2023-04-23T01:23:33;98194.50;;;7.14;55.21
40117;BME280;25829;50.228;18.936;2023-04-23T01:26:34;98193.25;;;7.10;55.86
40117;BME280;25829;50.228;18.936;2023-04-23T01:29:48;98193.84;;;7.12;56.46
40117;BME280;25829;50.228;18.936;2023-04-23T01:32:55;98189.81;;;7.10;56.08
40117;BME280;25829;50.228;18.936;2023-04-23T01:35:56;98189.78;;;7.03;56.45
40117;BME280;25829;50.228;18.936;2023-04-23T01:39:00;98190.16;;;7.00;56.08
40117;BME280;25829;50.228;18.936;2023-04-23T01:42:05;98187.09;;;6.96;56.20
40117;BME280;25829;50.228;18.936;2023-04-23T01:45:43;98190.91;;;6.94;57.10
40117;BME280;25829;50.228;18.936;2023-04-23T01:48:59;98190.09;;;6.93;56.45
40117;BME280;25829;50.228;18.936;2023-04-23T01:52:03;98190.47;;;6.90;56.12
40117;BME280;25829;50.228;18.936;2023-04-23T01:55:04;98192.69;;;6.87;56.52
40117;BME280;25829;50.228;18.936;2023-04-23T01:58:05;98192.69;;;6.87;56.78
40117;BME280;25829;50.228;18.936;2023-04-23T02:09:13;98186.00;;;6.84;57.46
40117;BME280;25829;50.228;18.936;2023-04-23T02:24:41;98179.16;;;6.62;57.88
40117;BME280;25829;50.228;18.936;2023-04-23T02:29:09;98176.91;;;6.59;58.55
40117;BME280;25829;50.228;18.936;2023-04-23T02:39:10;98162.31;;;6.49;58.44
40117;BME280;25829;50.228;18.936;2023-04-23T02:46:03;98166.53;;;6.44;58.44
40117;BME280;25829;50.228;18.936;2023-04-23T02:54:08;98166.09;;;6.40;58.92
40117;BME280;25829;50.228;18.936;2023-04-23T02:57:09;98164.00;;;6.36;58.58
40117;BME280;25829;50.228;18.936;2023-04-23T03:17:03;98171.31;;;6.19;59.69
40117;BME280;25829;50.228;18.936;2023-04-23T03:39:36;98158.63;;;6.01;59.92
40117;BME280;25829;50.228;18.936;2023-04-23T03:51:05;98176.63;;;5.89;60.50
40117;BME280;25829;50.228;18.936;2023-04-23T04:07:11;98166.63;;;5.78;61.43
40117;BME280;25829;50.228;18.936;2023-04-23T04:10:12;98171.66;;;5.79;61.13
40117;BME280;25829;50.228;18.936;2023-04-23T04:17:34;98176.44;;;5.76;61.36
40117;BME280;25829;50.228;18.936;2023-04-23T04:28:26;98170.72;;;6.02;61.57
40117;BME280;25829;50.228;18.936;2023-04-23T04:32:15;98170.69;;;6.17;61.48
40117;BME280;25829;50.228;18.936;2023-04-23T04:35:37;98174.44;;;6.29;61.62
40117;BME280;25829;50.228;18.936;2023-04-23T04:39:39;98168.38;;;6.28;61.17
40117;BME280;25829;50.228;18.936;2023-04-23T04:42:43;98177.91;;;6.36;60.95
40117;BME280;25829;50.228;18.936;2023-04-23T04:46:17;98169.19;;;6.50;60.82
40117;BME280;25829;50.228;18.936;2023-04-23T04:49:26;98172.72;;;6.64;61.37
40117;BME280;25829;50.228;18.936;2023-04-23T05:08:01;98171.84;;;7.76;60.74
40117;BME280;25829;50.228;18.936;2023-04-23T05:25:11;98168.06;;;9.96;58.33
40117;BME280;25829;50.228;18.936;2023-04-23T05:32:22;98168.84;;;10.67;54.98
40117;BME280;25829;50.228;18.936;2023-04-23T05:35:47;98161.63;;;10.87;53.94
40117;BME280;25829;50.228;18.936;2023-04-23T05:38:49;98164.34;;;10.99;53.12
40117;BME280;25829;50.228;18.936;2023-04-23T05:41:50;98172.94;;;11.13;52.50
40117;BME280;25829;50.228;18.936;2023-04-23T05:49:12;98161.31;;;11.57;51.42
40117;BME280;25829;50.228;18.936;2023-04-23T05:52:17;98159.97;;;11.66;50.70
40117;BME280;25829;50.228;18.936;2023-04-23T05:58:57;98162.97;;;11.88;50.07
40117;BME280;25829;50.228;18.936;2023-04-23T06:01:59;98165.06;;;11.98;49.33
40117;BME280;25829;50.228;18.936;2023-04-23T06:05:04;98170.44;;;12.10;49.18
40117;BME280;25829;50.228;18.936;2023-04-23T06:11:57;98164.09;;;12.41;47.92
40117;BME280;25829;50.228;18.936;2023-04-23T06:22:27;98166.91;;;13.05;47.34
40117;BME280;25829;50.228;18.936;2023-04-23T06:25:30;98162.22;;;13.18;46.77
40117;BME280;25829;50.228;18.936;2023-04-23T06:28:31;98171.06;;;13.36;46.42
40117;BME280;25829;50.228;18.936;2023-04-23T06:32:02;98167.00;;;13.57;46.79
40117;BME280;25829;50.228;18.936;2023-04-23T06:39:29;98155.34;;;13.98;46.23
40117;BME280;25829;50.228;18.936;2023-04-23T06:42:30;98154.75;;;14.08;45.41
40117;BME280;25829;50.228;18.936;2023-04-23T06:45:51;98157.00;;;14.28;45.70
40117;BME280;25829;50.228;18.936;2023-04-23T06:48:51;98156.19;;;14.27;44.66
40117;BME280;25829;50.228;18.936;2023-04-23T06:52:14;98160.19;;;14.30;44.59
40117;BME280;25829;50.228;18.936;2023-04-23T06:55:18;98144.63;;;14.33;44.56
40117;BME280;25829;50.228;18.936;2023-04-23T07:02:09;98152.53;;;14.62;44.29
40117;BME280;25829;50.228;18.936;2023-04-23T07:05:27;98137.56;;;14.73;43.82
40117;BME280;25829;50.228;18.936;2023-04-23T07:16:31;98135.97;;;15.27;43.24
40117;BME280;25829;50.228;18.936;2023-04-23T07:19:47;98140.41;;;15.44;42.83
40117;BME280;25829;50.228;18.936;2023-04-23T07:26:46;98123.84;;;15.80;43.07
40117;BME280;25829;50.228;18.936;2023-04-23T07:29:46;98138.91;;;15.97;41.59
40117;BME280;25829;50.228;18.936;2023-04-23T07:32:56;98135.03;;;16.10;41.91
40117;BME280;25829;50.228;18.936;2023-04-23T07:36:03;98136.31;;;16.29;41.85
40117;BME280;25829;50.228;18.936;2023-04-23T07:39:07;98130.63;;;16.47;40.51
40117;BME280;25829;50.228;18.936;2023-04-23T07:42:08;98125.94;;;16.60;39.85
40117;BME280;25829;50.228;18.936;2023-04-23T07:45:09;98130.84;;;16.73;40.37
40117;BME280;25829;50.228;18.936;2023-04-23T07:48:10;98122.94;;;16.88;40.77
40117;BME280;25829;50.228;18.936;2023-04-23T07:51:26;98124.44;;;17.11;40.94
40117;BME280;25829;50.228;18.936;2023-04-23T07:54:30;98121.34;;;17.30;40.52
40117;BME280;25829;50.228;18.936;2023-04-23T07:57:40;98121.19;;;17.62;39.38
40117;BME280;25829;50.228;18.936;2023-04-23T08:00:41;98114.88;;;17.83;39.35
40117;BME280;25829;50.228;18.936;2023-04-23T08:03:41;98117.34;;;18.10;39.48
40117;BME280;25829;50.228;18.936;2023-04-23T08:06:54;98110.97;;;18.37;38.92
40117;BME280;25829;50.228;18.936;2023-04-23T08:09:55;98109.38;;;18.61;36.51
40117;BME280;25829;50.228;18.936;2023-04-23T08:12:58;98106.13;;;18.80;36.20
40117;BME280;25829;50.228;18.936;2023-04-23T08:15:59;98099.97;;;19.15;37.07
40117;BME280;25829;50.228;18.936;2023-04-23T08:19:03;98102.16;;;19.63;34.47
40117;BME280;25829;50.228;18.936;2023-04-23T08:22:04;98097.00;;;20.26;36.07
40117;BME280;25829;50.228;18.936;2023-04-23T08:25:07;98092.19;;;20.86;35.00
40117;BME280;25829;50.228;18.936;2023-04-23T08:28:08;98092.13;;;21.44;34.74
40117;BME280;25829;50.228;18.936;2023-04-23T08:31:09;98098.19;;;22.12;33.16
40117;BME280;25829;50.228;18.936;2023-04-23T08:34:10;98086.50;;;22.87;32.84
40117;BME280;25829;50.228;18.936;2023-04-23T08:37:11;98069.06;;;23.53;32.35
40117;BME280;25829;50.228;18.936;2023-04-23T08:40:15;98072.72;;;24.30;32.01
40117;BME280;25829;50.228;18.936;2023-04-23T08:43:19;98081.25;;;25.08;29.36
40117;BME280;25829;50.228;18.936;2023-04-23T08:46:24;98071.91;;;25.80;30.20
40117;BME280;25829;50.228;18.936;2023-04-23T08:49:33;98071.56;;;26.42;29.73
40117;BME280;25829;50.228;18.936;2023-04-23T08:52:39;98069.38;;;26.92;30.08
40117;BME280;25829;50.228;18.936;2023-04-23T08:55:49;98069.97;;;27.35;27.76
40117;BME280;25829;50.228;18.936;2023-04-23T08:58:51;98059.06;;;27.74;29.85
40117;BME280;25829;50.228;18.936;2023-04-23T09:01:55;98065.06;;;28.00;24.52
40117;BME280;25829;50.228;18.936;2023-04-23T09:05:12;98061.47;;;28.09;22.37
40117;BME280;25829;50.228;18.936;2023-04-23T09:08:14;98063.63;;;27.82;27.12
40117;BME280;25829;50.228;18.936;2023-04-23T09:11:37;98064.34;;;27.91;27.35
40117;BME280;25829;50.228;18.936;2023-04-23T09:14:49;98060.13;;;27.81;21.10
40117;BME280;25829;50.228;18.936;2023-04-23T09:18:06;98066.44;;;27.44;26.38
40117;BME280;25829;50.228;18.936;2023-04-23T09:21:13;98046.41;;;26.98;25.91
40117;BME280;25829;50.228;18.936;2023-04-23T09:24:26;98056.47;;;26.33;23.61
40117;BME280;25829;50.228;18.936;2023-04-23T09:27:30;98046.75;;;24.96;25.40
40117;BME280;25829;50.228;18.936;2023-04-23T09:30:50;98042.69;;;24.23;26.92
40117;BME280;25829;50.228;18.936;2023-04-23T09:33:52;98048.59;;;23.66;27.06
40117;BME280;25829;50.228;18.936;2023-04-23T09:40:23;98044.97;;;23.34;28.95
40117;BME280;25829;50.228;18.936;2023-04-23T09:43:40;98040.06;;;23.87;27.65
40117;BME280;25829;50.228;18.936;2023-04-23T09:49:59;98039.94;;;24.99;28.73
40117;BME280;25829;50.228;18.936;2023-04-23T09:53:00;98033.41;;;25.40;28.99
40117;BME280;25829;50.228;18.936;2023-04-23T09:56:08;98031.09;;;25.90;29.02
40117;BME280;25829;50.228;18.936;2023-04-23T09:59:29;98030.03;;;26.38;25.05
40117;BME280;25829;50.228;18.936;2023-04-23T10:02:52;98018.91;;;26.31;28.29
40117;BME280;25829;50.228;18.936;2023-04-23T10:05:53;98012.00;;;26.04;28.21
40117;BME280;25829;50.228;18.936;2023-04-23T10:08:58;98013.41;;;25.67;29.26
40117;BME280;25829;50.228;18.936;2023-04-23T10:12:01;98008.91;;;25.28;27.61
40117;BME280;25829;50.228;18.936;2023-04-23T10:15:04;98010.81;;;24.79;28.84
40117;BME280;25829;50.228;18.936;2023-04-23T10:21:35;97995.38;;;24.08;29.30
40117;BME280;25829;50.228;18.936;2023-04-23T10:24:38;97988.75;;;23.69;26.26
40117;BME280;25829;50.228;18.936;2023-04-23T10:27:43;97994.44;;;23.04;26.97
40117;BME280;25829;50.228;18.936;2023-04-23T10:30:59;97990.53;;;22.55;25.92
40117;BME280;25829;50.228;18.936;2023-04-23T10:34:01;97980.97;;;22.16;28.54
40117;BME280;25829;50.228;18.936;2023-04-23T10:37:05;97977.13;;;21.89;28.70
40117;BME280;25829;50.228;18.936;2023-04-23T10:40:18;97977.34;;;21.74;27.67
40117;BME280;25829;50.228;18.936;2023-04-23T10:43:26;97973.91;;;21.55;28.28
40117;BME280;25829;50.228;18.936;2023-04-23T10:46:36;97977.31;;;21.41;28.69
40117;BME280;25829;50.228;18.936;2023-04-23T10:49:37;97970.06;;;21.23;29.14
40117;BME280;25829;50.228;18.936;2023-04-23T10:52:51;97975.78;;;21.11;29.14
40117;BME280;25829;50.228;18.936;2023-04-23T10:56:11;97966.06;;;20.96;29.24
40117;BME280;25829;50.228;18.936;2023-04-23T10:59:20;97964.25;;;20.92;29.23
40117;BME280;25829;50.228;18.936;2023-04-23T11:02:47;97963.59;;;20.81;28.56
40117;BME280;25829;50.228;18.936;2023-04-23T11:05:50;97957.03;;;20.68;30.28
40117;BME280;25829;50.228;18.936;2023-04-23T11:08:54;97954.59;;;20.67;30.81
40117;BME280;25829;50.228;18.936;2023-04-23T11:12:03;97958.22;;;20.81;30.21
40117;BME280;25829;50.228;18.936;2023-04-23T11:15:38;97962.75;;;20.81;30.62
40117;BME280;25829;50.228;18.936;2023-04-23T11:18:58;97955.25;;;20.83;31.05
40117;BME280;25829;50.228;18.936;2023-04-23T11:22:22;97948.44;;;20.90;30.84
40117;BME280;25829;50.228;18.936;2023-04-23T11:25:25;97946.78;;;20.94;30.62
40117;BME280;25829;50.228;18.936;2023-04-23T11:28:28;97948.53;;;21.04;30.77
40117;BME280;25829;50.228;18.936;2023-04-23T11:31:31;97941.59;;;21.22;31.17
40117;BME280;25829;50.228;18.936;2023-04-23T11:34:32;97943.13;;;21.28;28.12
40117;BME280;25829;50.228;18.936;2023-04-23T11:37:40;97939.44;;;21.24;29.67
40117;BME280;25829;50.228;18.936;2023-04-23T11:40:45;97934.09;;;21.24;30.17
40117;BME280;25829;50.228;18.936;2023-04-23T11:44:23;97944.50;;;21.26;29.37
40117;BME280;25829;50.228;18.936;2023-04-23T11:47:35;97937.03;;;21.22;29.96
40117;BME280;25829;50.228;18.936;2023-04-23T11:50:36;97938.44;;;21.20;30.78
40117;BME280;25829;50.228;18.936;2023-04-23T11:53:46;97931.09;;;21.26;30.82
40117;BME280;25829;50.228;18.936;2023-04-23T11:56:50;97931.75;;;21.36;30.95
40117;BME280;25829;50.228;18.936;2023-04-23T11:59:53;97934.88;;;21.43;30.32
40117;BME280;25829;50.228;18.936;2023-04-23T12:03:03;97928.84;;;21.52;30.13
40117;BME280;25829;50.228;18.936;2023-04-23T12:06:11;97923.69;;;21.55;30.59
40117;BME280;25829;50.228;18.936;2023-04-23T12:09:13;97923.53;;;21.46;30.19
40117;BME280;25829;50.228;18.936;2023-04-23T12:12:33;97931.97;;;21.40;29.91
40117;BME280;25829;50.228;18.936;2023-04-23T12:15:52;97929.16;;;21.31;30.63
40117;BME280;25829;50.228;18.936;2023-04-23T12:18:55;97926.09;;;21.19;30.60
40117;BME280;25829;50.228;18.936;2023-04-23T12:21:58;97923.75;;;21.12;30.12
40117;BME280;25829;50.228;18.936;2023-04-23T12:25:04;97919.56;;;21.06;30.77
40117;BME280;25829;50.228;18.936;2023-04-23T12:34:54;97908.66;;;20.97;31.30
40117;BME280;25829;50.228;18.936;2023-04-23T12:41:30;97889.88;;;20.79;30.20
40117;BME280;25829;50.228;18.936;2023-04-23T12:44:41;97883.84;;;20.68;29.75
40117;BME280;25829;50.228;18.936;2023-04-23T12:48:57;97888.44;;;20.86;29.98
40117;BME280;25829;50.228;18.936;2023-04-23T12:52:02;97893.09;;;20.99;29.63
40117;BME280;25829;50.228;18.936;2023-04-23T12:55:04;97885.97;;;21.09;28.91
40117;BME280;25829;50.228;18.936;2023-04-23T12:58:06;97894.25;;;21.12;29.50
40117;BME280;25829;50.228;18.936;2023-04-23T13:01:07;97887.38;;;21.25;28.99
40117;BME280;25829;50.228;18.936;2023-04-23T13:04:11;97876.28;;;21.32;29.55
40117;BME280;25829;50.228;18.936;2023-04-23T13:07:14;97885.63;;;21.34;29.62
40117;BME280;25829;50.228;18.936;2023-04-23T13:10:15;97878.38;;;21.35;29.89
40117;BME280;25829;50.228;18.936;2023-04-23T13:13:19;97870.50;;;21.25;28.97
40117;BME280;25829;50.228;18.936;2023-04-23T13:16:20;97873.66;;;21.08;29.00
40117;BME280;25829;50.228;18.936;2023-04-23T13:20:15;97873.97;;;21.06;29.79
40117;BME280;25829;50.228;18.936;2023-04-23T13:23:16;97869.88;;;21.09;29.73
40117;BME280;25829;50.228;18.936;2023-04-23T13:26:20;97866.56;;;21.17;28.74
40117;BME280;25829;50.228;18.936;2023-04-23T13:29:23;97867.91;;;21.19;29.73
40117;BME280;25829;50.228;18.936;2023-04-23T13:32:40;97855.97;;;21.26;30.31
40117;BME280;25829;50.228;18.936;2023-04-23T13:35:41;97855.91;;;21.31;29.64
40117;BME280;25829;50.228;18.936;2023-04-23T13:38:51;97854.44;;;21.38;29.69
40117;BME280;25829;50.228;18.936;2023-04-23T13:41:58;97848.88;;;21.35;29.73
40117;BME280;25829;50.228;18.936;2023-04-23T13:45:13;97850.91;;;21.24;29.64
40117;BME280;25829;50.228;18.936;2023-04-23T13:52:16;97842.88;;;20.86;29.66
40117;BME280;25829;50.228;18.936;2023-04-23T13:55:18;97844.88;;;20.75;29.81
40117;BME280;25829;50.228;18.936;2023-04-23T13:58:27;97832.38;;;20.71;29.66
40117;BME280;25829;50.228;18.936;2023-04-23T14:01:31;97830.47;;;20.71;30.06
40117;BME280;25829;50.228;18.936;2023-04-23T14:04:37;97834.91;;;20.81;30.02
40117;BME280;25829;50.228;18.936;2023-04-23T14:07:45;97833.94;;;20.91;30.51
40117;BME280;25829;50.228;18.936;2023-04-23T14:10:52;97826.06;;;20.99;29.86
40117;BME280;25829;50.228;18.936;2023-04-23T14:13:55;97823.28;;;21.05;29.65
40117;BME280;25829;50.228;18.936;2023-04-23T14:16:56;97830.75;;;21.08;29.59
40117;BME280;25829;50.228;18.936;2023-04-23T14:19:56;97828.50;;;21.15;29.84
40117;BME280;25829;50.228;18.936;2023-04-23T14:23:02;97820.41;;;21.20;30.10
40117;BME280;25829;50.228;18.936;2023-04-23T14:26:08;97821.41;;;21.24;30.43
40117;BME280;25829;50.228;18.936;2023-04-23T14:29:29;97816.31;;;21.22;30.00
40117;BME280;25829;50.228;18.936;2023-04-23T14:32:33;97815.03;;;21.20;29.75
40117;BME280;25829;50.228;18.936;2023-04-23T14:35:40;97813.28;;;21.10;29.11
40117;BME280;25829;50.228;18.936;2023-04-23T14:38:41;97818.44;;;21.07;29.50
40117;BME280;25829;50.228;18.936;2023-04-23T14:41:42;97807.72;;;21.07;29.39
40117;BME280;25829;50.228;18.936;2023-04-23T14:44:43;97806.91;;;21.06;29.61
40117;BME280;25829;50.228;18.936;2023-04-23T14:47:45;97812.84;;;21.03;29.53
40117;BME280;25829;50.228;18.936;2023-04-23T14:50:51;97814.31;;;20.95;29.20
40117;BME280;25829;50.228;18.936;2023-04-23T14:53:55;97818.22;;;20.84;29.21
40117;BME280;25829;50.228;18.936;2023-04-23T14:57:02;97809.81;;;20.72;29.35
40117;BME280;25829;50.228;18.936;2023-04-23T15:00:04;97815.03;;;20.63;29.75
40117;BME280;25829;50.228;18.936;2023-04-23T15:03:06;97820.25;;;20.55;30.18
40117;BME280;25829;50.228;18.936;2023-04-23T15:06:10;97815.28;;;20.43;30.61
40117;BME280;25829;50.228;18.936;2023-04-23T15:09:10;97824.47;;;20.37;31.72
40117;BME280;25829;50.228;18.936;2023-04-23T15:15:54;97812.56;;;20.24;31.74
40117;BME280;25829;50.228;18.936;2023-04-23T15:18:57;97816.03;;;20.24;31.96
40117;BME280;25829;50.228;18.936;2023-04-23T15:21:58;97807.13;;;20.29;32.00
40117;BME280;25829;50.228;18.936;2023-04-23T15:25:05;97815.41;;;20.33;31.84
40117;BME280;25829;50.228;18.936;2023-04-23T15:28:06;97803.81;;;20.37;32.03
40117;BME280;25829;50.228;18.936;2023-04-23T15:31:07;97807.53;;;20.41;32.15
40117;BME280;25829;50.228;18.936;2023-04-23T15:34:10;97796.47;;;20.48;32.18
40117;BME280;25829;50.228;18.936;2023-04-23T15:37:13;97805.97;;;20.59;32.21
40117;BME280;25829;50.228;18.936;2023-04-23T15:40:21;97791.44;;;20.65;31.66
40117;BME280;25829;50.228;18.936;2023-04-23T15:43:25;97794.53;;;20.72;32.08
40117;BME280;25829;50.228;18.936;2023-04-23T15:46:35;97788.81;;;20.79;31.84
40117;BME280;25829;50.228;18.936;2023-04-23T15:49:36;97785.63;;;20.77;31.78
40117;BME280;25829;50.228;18.936;2023-04-23T15:52:40;97783.25;;;20.75;31.80
40117;BME280;25829;50.228;18.936;2023-04-23T15:55:42;97787.50;;;20.76;31.46
40117;BME280;25829;50.228;18.936;2023-04-23T15:58:43;97778.16;;;20.74;31.30
40117;BME280;25829;50.228;18.936;2023-04-23T16:04:59;97784.56;;;20.78;31.38
40117;BME280;25829;50.228;18.936;2023-04-23T16:08:09;97780.25;;;20.77;31.37
40117;BME280;25829;50.228;18.936;2023-04-23T16:11:21;97781.44;;;20.71;31.73
40117;BME280;25829;50.228;18.936;2023-04-23T16:14:25;97780.63;;;20.70;31.75
40117;BME280;25829;50.228;18.936;2023-04-23T16:17:29;97774.25;;;20.66;31.77
40117;BME280;25829;50.228;18.936;2023-04-23T16:20:49;97769.47;;;20.63;31.43
40117;BME280;25829;50.228;18.936;2023-04-23T16:23:50;97776.28;;;20.56;31.39
40117;BME280;25829;50.228;18.936;2023-04-23T16:26:57;97767.00;;;20.48;31.39
40117;BME280;25829;50.228;18.936;2023-04-23T16:29:57;97761.69;;;20.43;31.40
40117;BME280;25829;50.228;18.936;2023-04-23T16:32:58;97756.91;;;20.40;31.43
40117;BME280;25829;50.228;18.936;2023-04-23T16:35:59;97765.22;;;20.38;31.69
40117;BME280;25829;50.228;18.936;2023-04-23T16:39:00;97755.88;;;20.36;31.87
40117;BME280;25829;50.228;18.936;2023-04-23T16:42:01;97756.97;;;20.35;31.65
40117;BME280;25829;50.228;18.936;2023-04-23T16:45:03;97753.84;;;20.27;31.92
40117;BME280;25829;50.228;18.936;2023-04-23T16:48:04;97758.25;;;20.18;31.89
40117;BME280;25829;50.228;18.936;2023-04-23T16:51:05;97758.03;;;20.15;32.32
40117;BME280;25829;50.228;18.936;2023-04-23T16:54:05;97753.00;;;20.08;32.11
40117;BME280;25829;50.228;18.936;2023-04-23T16:57:12;97753.09;;;20.03;32.04
40117;BME280;25829;50.228;18.936;2023-04-23T17:03:43;97756.91;;;19.97;32.39
40117;BME280;25829;50.228;18.936;2023-04-23T17:09:59;97750.25;;;19.94;32.41
40117;BME280;25829;50.228;18.936;2023-04-23T17:13:07;97755.09;;;19.92;32.48
40117;BME280;25829;50.228;18.936;2023-04-23T17:16:36;97748.44;;;19.90;32.50
40117;BME280;25829;50.228;18.936;2023-04-23T17:19:42;97745.81;;;19.85;32.79
40117;BME280;25829;50.228;18.936;2023-04-23T17:22:51;97759.53;;;19.78;32.97
40117;BME280;25829;50.228;18.936;2023-04-23T17:26:06;97760.16;;;19.70;32.98
40117;BME280;25829;50.228;18.936;2023-04-23T17:29:07;97752.72;;;19.62;33.34
40117;BME280;25829;50.228;18.936;2023-04-23T17:32:39;97762.91;;;19.59;33.38
40117;BME280;25829;50.228;18.936;2023-04-23T17:38:56;97762.50;;;19.47;33.77
40117;BME280;25829;50.228;18.936;2023-04-23T17:42:19;97771.63;;;19.46;34.02
40117;BME280;25829;50.228;18.936;2023-04-23T17:45:20;97764.16;;;19.43;34.17
40117;BME280;25829;50.228;18.936;2023-04-23T17:48:38;97766.34;;;19.36;34.35
40117;BME280;25829;50.228;18.936;2023-04-23T17:51:49;97771.72;;;19.31;34.85
40117;BME280;25829;50.228;18.936;2023-04-23T17:54:53;97777.69;;;19.23;34.70
40117;BME280;25829;50.228;18.936;2023-04-23T18:01:06;97777.00;;;19.07;35.16
40117;BME280;25829;50.228;18.936;2023-04-23T18:04:10;97774.16;;;18.98;34.97
40117;BME280;25829;50.228;18.936;2023-04-23T18:07:11;97771.78;;;18.92;35.13
40117;BME280;25829;50.228;18.936;2023-04-23T18:10:12;97784.91;;;18.83;35.33
40117;BME280;25829;50.228;18.936;2023-04-23T18:13:13;97783.59;;;18.80;35.68
40117;BME280;25829;50.228;18.936;2023-04-23T18:16:14;97776.41;;;18.76;35.88
40117;BME280;25829;50.228;18.936;2023-04-23T18:19:15;97779.91;;;18.71;36.04
40117;BME280;25829;50.228;18.936;2023-04-23T18:22:16;97785.28;;;18.66;36.15
40117;BME280;25829;50.228;18.936;2023-04-23T18:25:17;97791.75;;;18.60;36.28
40117;BME280;25829;50.228;18.936;2023-04-23T18:28:18;97794.44;;;18.55;36.33
40117;BME280;25829;50.228;18.936;2023-04-23T18:31:19;97785.41;;;18.46;36.68
40117;BME280;25829;50.228;18.936;2023-04-23T18:34:21;97787.06;;;18.31;37.30
40117;BME280;25829;50.228;18.936;2023-04-23T18:37:40;97791.66;;;18.21;37.87
40117;BME280;25829;50.228;18.936;2023-04-23T18:40:41;97784.78;;;18.04;37.86
40117;BME280;25829;50.228;18.936;2023-04-23T18:43:42;97788.25;;;17.95;38.19
40117;BME280;25829;50.228;18.936;2023-04-23T18:46:43;97790.13;;;17.89;38.60
40117;BME280;25829;50.228;18.936;2023-04-23T18:50:07;97795.22;;;17.85;39.29
40117;BME280;25829;50.228;18.936;2023-04-23T18:53:17;97801.63;;;17.79;38.68
40117;BME280;25829;50.228;18.936;2023-04-23T18:56:17;97803.53;;;17.74;38.93
40117;BME280;25829;50.228;18.936;2023-04-23T18:59:18;97802.72;;;17.68;39.19
40117;BME280;25829;50.228;18.936;2023-04-23T19:02:32;97794.47;;;17.59;39.49
40117;BME280;25829;50.228;18.936;2023-04-23T19:05:41;97797.16;;;17.49;39.73
40117;BME280;25829;50.228;18.936;2023-04-23T19:08:42;97802.50;;;17.39;39.86
40117;BME280;25829;50.228;18.936;2023-04-23T19:11:43;97791.31;;;17.32;39.86
40117;BME280;25829;50.228;18.936;2023-04-23T19:14:44;97797.97;;;17.19;39.93
40117;BME280;25829;50.228;18.936;2023-04-23T19:17:45;97796.84;;;17.10;40.16
40117;BME280;25829;50.228;18.936;2023-04-23T19:20:46;97800.84;;;17.02;40.65
40117;BME280;25829;50.228;18.936;2023-04-23T19:23:50;97803.25;;;16.93;41.17
40117;BME280;25829;50.228;18.936;2023-04-23T19:26:53;97796.84;;;16.84;41.47
40117;BME280;25829;50.228;18.936;2023-04-23T19:29:53;97801.63;;;16.77;41.73
40117;BME280;25829;50.228;18.936;2023-04-23T19:32:55;97797.63;;;16.69;42.17
40117;BME280;25829;50.228;18.936;2023-04-23T19:35:56;97799.47;;;16.59;42.40
40117;BME280;25829;50.228;18.936;2023-04-23T19:38:57;97800.50;;;16.53;42.52
40117;BME280;25829;50.228;18.936;2023-04-23T19:41:58;97793.84;;;16.45;42.71
40117;BME280;25829;50.228;18.936;2023-04-23T19:44:59;97792.19;;;16.34;42.96
40117;BME280;25829;50.228;18.936;2023-04-23T19:48:03;97793.22;;;16.22;43.29
40117;BME280;25829;50.228;18.936;2023-04-23T19:51:04;97791.00;;;16.09;43.46
40117;BME280;25829;50.228;18.936;2023-04-23T19:54:08;97789.88;;;15.95;43.90
40117;BME280;25829;50.228;18.936;2023-04-23T19:57:12;97784.69;;;15.73;44.49
40117;BME280;25829;50.228;18.936;2023-04-23T20:00:13;97794.19;;;15.59;44.88
40117;BME280;25829;50.228;18.936;2023-04-23T20:03:14;97784.28;;;15.49;44.93
40117;BME280;25829;50.228;18.936;2023-04-23T20:06:15;97782.66;;;15.43;45.18
40117;BME280;25829;50.228;18.936;2023-04-23T20:09:16;97785.50;;;15.31;45.19
40117;BME280;25829;50.228;18.936;2023-04-23T20:12:26;97784.81;;;15.19;45.59
40117;BME280;25829;50.228;18.936;2023-04-23T20:15:29;97784.25;;;15.12;45.61
40117;BME280;25829;50.228;18.936;2023-04-23T20:18:30;97779.63;;;15.02;45.82
40117;BME280;25829;50.228;18.936;2023-04-23T20:21:37;97787.50;;;14.92;45.84
40117;BME280;25829;50.228;18.936;2023-04-23T20:24:41;97783.75;;;14.88;46.29
40117;BME280;25829;50.228;18.936;2023-04-23T20:27:54;97782.63;;;14.78;46.26
40117;BME280;25829;50.228;18.936;2023-04-23T20:30:56;97784.13;;;14.69;46.19
40117;BME280;25829;50.228;18.936;2023-04-23T20:34:00;97779.50;;;14.59;46.51
40117;BME280;25829;50.228;18.936;2023-04-23T20:37:17;97783.41;;;14.52;47.68
40117;BME280;25829;50.228;18.936;2023-04-23T20:44:42;97779.25;;;14.34;46.93
40117;BME280;25829;50.228;18.936;2023-04-23T20:55:55;97788.41;;;14.04;47.75